Trowbridge, Illinois
Current Conditions -  °F | °C
As of 2:53 PM on Wednesday 17 Dec 2014 (Local Time) from KMTO Reporting Station
Overcast Overcast  
Wind Chill: 18°   Ceiling: 1300
Heat Index: 26°   Visibility: 10mi
Dew Point: 20°   Wind: 8mph
Humidity: 78%   Direction: 300°WNW
Pressure: 30.27"   Gusts: NA
Location:  39.3144°N, 88.4504°W
Report Text: KMTO 172053Z AUTO 30007KT 10SM OVC013 M03/M07 A3027 RMK AO2 SLP260 T10331067 55005
Loading
Personal Weather Stations






























Interactive Weather Map New forecast layout! Learn more

10-Day Weather Forecast

Advertisements
Track Severe Weather on mobile